Time;durP1;ratioP1;P1;durP2;ratioP2;P2;SDS_P1;SDS_P2;PMS_P1;PMS_P2;Temp;Humidity;BMP_temperature;BMP_pressure;BME280_temperature;BME280_humidity;BME280_pressure;Samples;Min_cycle;Max_cycle;Signal;HPM_P1;HPM_P2
2022/12/08 00:02:14;;;;;;;10.53;4.63;;;;;;;0.33;100.00;100351.13;5045022;28;20260;-52
2022/12/08 00:10:08;;;;;;;9.97;5.00;;;;;;;-145.23;100.00;58621.06;5039760;28;20237;-53
2022/12/08 00:12:35;;;;;;;6.37;4.70;;;;;;;-145.23;100.00;58621.06;5044582;28;20231;-53
2022/12/08 00:15:02;;;;;;;6.60;5.00;;;;;;;-145.23;100.00;58621.06;5048085;28;20252;-54
2022/12/08 00:17:29;;;;;;;7.50;5.27;;;;;;;-145.23;100.00;58621.06;5048428;28;20239;-53
2022/12/08 00:19:55;;;;;;;6.30;4.63;;;;;;;-145.23;100.00;58621.06;5046546;28;20265;-53
2022/12/08 00:22:23;;;;;;;5.53;4.40;;;;;;;-145.23;100.00;58621.06;5047939;28;20318;-53
2022/12/08 00:24:50;;;;;;;5.53;4.93;;;;;;;-145.23;100.00;58621.06;5056209;28;23027;-53
2022/12/08 00:27:17;;;;;;;7.77;5.80;;;;;;;-145.23;100.00;58621.06;5042575;28;20239;-52
2022/12/08 00:29:44;;;;;;;9.77;5.17;;;;;;;-145.23;100.00;58621.06;5056911;28;20742;-54
2022/12/08 00:32:11;;;;;;;7.30;5.23;;;;;;;-145.23;100.00;58621.06;5051803;28;20234;-53
2022/12/08 00:34:38;;;;;;;8.47;5.07;;;;;;;-145.23;100.00;58621.06;5053751;28;20239;-53
2022/12/08 00:37:05;;;;;;;11.67;6.83;;;;;;;-145.23;100.00;58621.06;5058246;28;20242;-53
2022/12/08 00:39:33;;;;;;;8.50;5.93;;;;;;;-145.23;100.00;58621.06;5047974;28;20277;-54
2022/12/08 00:42:13;;;;;;;11.37;6.03;;;;;;;-145.23;100.00;58621.06;5037688;28;20240;-52
2022/12/08 00:44:40;;;;;;;9.37;5.97;;;;;;;-145.23;100.00;58621.06;5051183;28;20284;-54
2022/12/08 00:47:07;;;;;;;8.27;6.20;;;;;;;-145.23;100.00;58621.06;5050702;28;21822;-54
2022/12/08 00:49:33;;;;;;;10.33;5.80;;;;;;;-145.23;100.00;58621.06;5040531;28;20885;-53
2022/12/08 00:52:01;;;;;;;8.33;5.50;;;;;;;-145.23;100.00;58621.06;5058656;28;20364;-52
2022/12/08 00:54:27;;;;;;;8.77;6.07;;;;;;;-145.23;100.00;58621.06;5039212;28;20224;-53
2022/12/08 00:56:56;;;;;;;7.47;5.80;;;;;;;-145.23;100.00;58621.06;5043405;28;20235;-52
2022/12/08 00:59:22;;;;;;;10.03;6.60;;;;;;;-145.23;100.00;58621.06;5043033;28;20254;-52
2022/12/08 01:01:49;;;;;;;14.80;7.00;;;;;;;-145.23;100.00;58621.06;5065371;28;20373;-53
2022/12/08 01:04:17;;;;;;;7.80;6.30;;;;;;;-145.23;100.00;58621.06;5053780;28;20276;-53
2022/12/08 01:06:44;;;;;;;10.27;5.50;;;;;;;-145.23;100.00;58621.06;5049980;28;20383;-54
2022/12/08 01:09:13;;;;;;;11.23;7.40;;;;;;;-145.23;100.00;58621.06;5052146;28;20280;-54
2022/12/08 01:11:39;;;;;;;8.63;6.17;;;;;;;-145.23;100.00;58621.06;5046112;28;20239;-54
2022/12/08 01:14:07;;;;;;;10.03;6.03;;;;;;;-145.23;100.00;58621.06;5045996;28;20238;-53
2022/12/08 01:16:36;;;;;;;6.73;5.73;;;;;;;-145.23;100.00;58621.06;5046513;28;20319;-54
2022/12/08 01:19:03;;;;;;;10.13;6.20;;;;;;;-145.23;100.00;58621.06;5045062;28;20338;-53
2022/12/08 01:21:29;;;;;;;16.23;7.40;;;;;;;-145.23;100.00;58621.06;5057516;28;20288;-53
2022/12/08 01:23:56;;;;;;;8.83;7.40;;;;;;;-145.23;100.00;58621.06;5052143;28;20367;-53
2022/12/08 01:26:23;;;;;;;11.20;6.53;;;;;;;-145.23;100.00;58621.06;5044381;28;20751;-54
2022/12/08 01:28:50;;;;;;;16.17;7.87;;;;;;;-145.23;100.00;58621.06;5038815;28;20238;-54
2022/12/08 01:31:19;;;;;;;7.20;6.37;;;;;;;-145.23;100.00;58621.06;5059828;28;20910;-53
2022/12/08 01:33:46;;;;;;;8.80;5.77;;;;;;;-145.23;100.00;58621.06;5045253;28;20231;-52
2022/12/08 01:36:20;;;;;;;10.17;6.43;;;;;;;-145.23;100.00;58621.06;5040626;28;20323;-54
2022/12/08 01:38:46;;;;;;;7.27;5.67;;;;;;;-145.23;100.00;58621.06;5048557;28;20310;-53
2022/12/08 01:41:14;;;;;;;14.30;7.40;;;;;;;-145.23;100.00;58621.06;5048197;28;20341;-53
2022/12/08 01:43:54;;;;;;;11.03;6.50;;;;;;;-145.23;100.00;58621.06;5043105;28;20254;-54
2022/12/08 01:46:23;;;;;;;8.47;6.87;;;;;;;-145.23;100.00;58621.06;5045940;28;20272;-54
2022/12/08 01:48:50;;;;;;;8.17;5.80;;;;;;;-145.23;100.00;58621.06;5037993;28;20246;-53
2022/12/08 01:51:17;;;;;;;11.03;6.20;;;;;;;-145.23;100.00;58621.06;5057816;28;20229;-52
2022/12/08 01:53:44;;;;;;;9.00;6.70;;;;;;;-145.23;100.00;58621.06;5043529;28;20707;-53
2022/12/08 01:56:13;;;;;;;8.07;6.23;;;;;;;-145.23;100.00;58621.06;5036258;28;20319;-54
2022/12/08 01:58:43;;;;;;;10.47;6.80;;;;;;;-145.23;100.00;58621.06;5042452;28;20278;-53
2022/12/08 02:01:11;;;;;;;8.83;6.37;;;;;;;-145.23;100.00;58621.06;5042470;28;20331;-53
2022/12/08 02:03:42;;;;;;;7.83;6.13;;;;;;;-145.23;100.00;58621.06;5041128;28;20230;-53
2022/12/08 02:06:09;;;;;;;9.70;7.10;;;;;;;-145.23;100.00;58621.06;5045375;28;20322;-54
2022/12/08 02:08:36;;;;;;;10.90;7.67;;;;;;;-145.23;100.00;58621.06;5043848;28;20315;-54
2022/12/08 02:11:05;;;;;;;8.33;6.60;;;;;;;-145.23;100.00;58621.06;5044817;28;20234;-55
2022/12/08 02:13:32;;;;;;;10.87;6.33;;;;;;;-145.23;100.00;58621.06;5045833;28;20235;-54
2022/12/08 02:16:03;;;;;;;9.37;7.13;;;;;;;-145.23;100.00;58621.06;5042777;28;20229;-52
2022/12/08 02:18:43;;;;;;;8.90;7.37;;;;;;;-145.23;100.00;58621.06;5045144;28;20943;-53
2022/12/08 02:21:13;;;;;;;9.10;6.97;;;;;;;-145.23;100.00;58621.06;5053947;28;20308;-55
2022/12/08 02:23:50;;;;;;;7.20;6.40;;;;;;;-145.23;100.00;58621.06;5051562;28;20313;-54
2022/12/08 02:26:49;;;;;;;8.23;6.77;;;;;;;-145.23;100.00;58621.06;5036732;28;20235;-56
2022/12/08 02:30:01;;;;;;;10.70;6.90;;;;;;;-145.23;100.00;58621.06;5048951;28;20317;-54
2022/12/08 02:32:47;;;;;;;8.27;6.70;;;;;;;-145.23;100.00;58621.06;5050559;28;20311;-55
2022/12/08 02:35:23;;;;;;;11.33;7.40;;;;;;;-145.23;100.00;58621.06;5055424;28;20722;-54
2022/12/08 02:37:53;;;;;;;7.77;6.07;;;;;;;-145.23;100.00;58621.06;5058489;28;20421;-53
2022/12/08 02:40:22;;;;;;;7.73;6.00;;;;;;;-145.23;100.00;58621.06;5041337;28;20779;-55
2022/12/08 02:42:54;;;;;;;7.30;5.67;;;;;;;-145.23;100.00;58621.06;5053784;28;20274;-54
2022/12/08 02:45:25;;;;;;;9.67;5.33;;;;;;;-145.23;100.00;58621.06;5041634;28;20314;-53
2022/12/08 02:47:52;;;;;;;7.37;5.87;;;;;;;-145.23;100.00;58621.06;5053790;28;20264;-53
2022/12/08 02:50:20;;;;;;;8.10;5.97;;;;;;;-145.23;100.00;58621.06;5062772;28;20256;-54
2022/12/08 02:52:47;;;;;;;10.13;6.53;;;;;;;-145.23;100.00;58621.06;5046412;28;20616;-54
2022/12/08 02:55:24;;;;;;;7.37;6.17;;;;;;;-145.23;100.00;58621.06;5043096;28;20256;-54
2022/12/08 02:58:08;;;;;;;7.50;5.53;;;;;;;-145.23;100.00;58621.06;5042611;28;20322;-54
2022/12/08 03:00:44;;;;;;;7.70;5.30;;;;;;;-145.23;100.00;58621.06;5045062;28;20247;-54
2022/12/08 03:03:21;;;;;;;8.93;5.07;;;;;;;-145.23;100.00;58621.06;5048922;28;20270;-54
2022/12/08 03:05:58;;;;;;;10.80;6.43;;;;;;;-145.23;100.00;58621.06;5043639;28;20299;-54
2022/12/08 03:08:28;;;;;;;8.47;5.50;;;;;;;-145.23;100.00;58621.06;5045836;28;20238;-54
2022/12/08 03:10:59;;;;;;;8.00;5.33;;;;;;;-145.23;100.00;58621.06;5044458;28;20231;-54
2022/12/08 03:13:30;;;;;;;9.57;5.43;;;;;;;-145.23;100.00;58621.06;5048690;28;20646;-54
2022/12/08 03:15:57;;;;;;;7.03;5.30;;;;;;;-145.23;100.00;58621.06;5042376;28;20679;-56
2022/12/08 03:18:28;;;;;;;9.47;5.37;;;;;;;-145.23;100.00;58621.06;5064532;28;20238;-54
2022/12/08 03:20:56;;;;;;;5.93;4.87;;;;;;;-145.23;100.00;58621.06;5058290;28;20234;-53
2022/12/08 03:23:24;;;;;;;6.13;4.87;;;;;;;-145.23;100.00;58621.06;5055523;28;20329;-53
2022/12/08 03:25:55;;;;;;;5.33;4.23;;;;;;;-145.23;100.00;58621.06;5046231;28;20334;-54
2022/12/08 03:28:22;;;;;;;6.87;5.23;;;;;;;-145.23;100.00;58621.06;5054238;28;20702;-53
2022/12/08 03:30:52;;;;;;;5.90;4.83;;;;;;;-145.23;100.00;58621.06;5048830;28;20245;-53
2022/12/08 03:33:22;;;;;;;7.90;4.47;;;;;;;-145.23;100.00;58621.06;5044802;28;20273;-54
2022/12/08 03:35:50;;;;;;;10.33;4.97;;;;;;;-145.23;100.00;58621.06;5046929;28;20612;-53
2022/12/08 03:38:18;;;;;;;5.97;4.60;;;;;;;-145.23;100.00;58621.06;5056389;28;20324;-54
2022/12/08 03:41:16;;;;;;;6.20;5.13;;;;;;;-145.23;100.00;58621.06;5060695;28;20269;-54
2022/12/08 03:43:32;;;;;;;6.40;4.37;;;;;;;-145.23;100.00;58621.06;5038303;28;20246;-54
2022/12/08 03:45:59;;;;;;;6.00;4.70;;;;;;;-145.23;100.00;58621.06;5036116;28;20666;-53
2022/12/08 03:48:25;;;;;;;5.13;4.43;;;;;;;-145.23;100.00;58621.06;5063362;28;20317;-53
2022/12/08 03:50:52;;;;;;;6.10;4.57;;;;;;;-145.23;100.00;58621.06;5057931;28;20681;-53
2022/12/08 03:53:20;;;;;;;5.77;5.17;;;;;;;-145.23;100.00;58621.06;5047211;28;20264;-54
2022/12/08 03:55:46;;;;;;;6.10;5.27;;;;;;;-145.23;100.00;58621.06;5047471;28;20309;-53
2022/12/08 03:58:13;;;;;;;7.57;5.77;;;;;;;-145.23;100.00;58621.06;5047441;28;20601;-52
2022/12/08 04:00:39;;;;;;;7.10;5.80;;;;;;;-145.23;100.00;58621.06;5048854;28;20319;-53
2022/12/08 04:03:06;;;;;;;7.50;5.67;;;;;;;-145.23;100.00;58621.06;5047990;28;20968;-53
2022/12/08 04:05:33;;;;;;;8.57;6.50;;;;;;;-145.23;100.00;58621.06;5049651;28;20350;-55
2022/12/08 04:07:59;;;;;;;9.37;6.60;;;;;;;-145.23;100.00;58621.06;5051779;28;20754;-53
2022/12/08 04:10:27;;;;;;;7.67;6.77;;;;;;;-145.23;100.00;58621.06;5060610;28;20234;-54
2022/12/08 04:12:54;;;;;;;9.60;6.40;;;;;;;-145.23;100.00;58621.06;5053443;28;20240;-54
2022/12/08 04:15:21;;;;;;;8.93;7.10;;;;;;;-145.23;100.00;58621.06;5042902;28;20330;-55
2022/12/08 04:17:48;;;;;;;11.17;7.33;;;;;;;-145.23;100.00;58621.06;5051942;28;20320;-54
2022/12/08 04:20:15;;;;;;;9.93;7.23;;;;;;;-145.23;100.00;58621.06;5050748;28;20238;-54
2022/12/08 04:22:42;;;;;;;9.07;6.83;;;;;;;-145.23;100.00;58621.06;5045575;28;20242;-53
2022/12/08 04:25:09;;;;;;;9.30;7.77;;;;;;;-145.23;100.00;58621.06;5042894;28;20473;-54
2022/12/08 04:27:38;;;;;;;8.63;7.43;;;;;;;-145.23;100.00;58621.06;5056387;28;20289;-56
2022/12/08 04:30:06;;;;;;;11.57;8.23;;;;;;;-145.23;100.00;58621.06;5052762;28;20873;-57
2022/12/08 04:32:33;;;;;;;9.60;7.40;;;;;;;-145.23;100.00;58621.06;5056532;28;20234;-60
2022/12/08 04:35:00;;;;;;;11.77;8.40;;;;;;;-145.23;100.00;58621.06;5046625;28;20842;-62
2022/12/08 04:37:28;;;;;;;8.60;6.97;;;;;;;-145.23;100.00;58621.06;5046986;28;20239;-60
2022/12/08 04:39:55;;;;;;;12.13;7.57;;;;;;;-145.23;100.00;58621.06;5051641;28;20688;-60
2022/12/08 04:42:22;;;;;;;10.87;8.53;;;;;;;-145.23;100.00;58621.06;5058662;28;20228;-59
2022/12/08 04:44:50;;;;;;;14.07;8.60;;;;;;;-145.23;100.00;58621.06;5055224;28;20288;-59
2022/12/08 04:47:17;;;;;;;10.83;8.17;;;;;;;-145.23;100.00;58621.06;5050230;28;20230;-60
2022/12/08 04:49:44;;;;;;;12.73;9.07;;;;;;;-145.23;100.00;58621.06;5045525;28;20235;-59
2022/12/08 04:52:10;;;;;;;13.40;9.63;;;;;;;-145.23;100.00;58621.06;5059953;28;20231;-59
2022/12/08 04:54:37;;;;;;;14.10;10.33;;;;;;;-145.23;100.00;58621.06;5044305;28;20377;-59
2022/12/08 04:57:04;;;;;;;15.07;10.13;;;;;;;-145.23;100.00;58621.06;5049653;28;20243;-59
2022/12/08 04:59:31;;;;;;;14.47;9.70;;;;;;;-145.23;100.00;58621.06;5046572;28;20895;-58
2022/12/08 05:01:59;;;;;;;17.60;10.17;;;;;;;-145.23;100.00;58621.06;5052382;28;20241;-58
2022/12/08 05:04:27;;;;;;;13.57;10.40;;;;;;;-145.23;100.00;58621.06;5052281;28;20643;-59
2022/12/08 05:06:54;;;;;;;14.20;10.00;;;;;;;-145.23;100.00;58621.06;5050006;28;20248;-58
2022/12/08 05:09:21;;;;;;;16.23;11.17;;;;;;;-145.23;100.00;58621.06;5057130;28;20223;-57
2022/12/08 05:11:48;;;;;;;17.73;10.57;;;;;;;-145.23;100.00;58621.06;5048601;28;20319;-57
2022/12/08 05:14:17;;;;;;;16.73;11.10;;;;;;;-145.23;100.00;58621.06;5052448;28;20231;-59
2022/12/08 05:16:44;;;;;;;18.27;11.27;;;;;;;-145.23;100.00;58621.06;5049169;28;20276;-58
2022/12/08 05:19:12;;;;;;;17.30;11.30;;;;;;;-145.23;100.00;58621.06;5053619;28;20299;-57
2022/12/08 05:21:39;;;;;;;15.57;10.87;;;;;;;-145.23;100.00;58621.06;5047868;28;20250;-57
2022/12/08 05:24:06;;;;;;;14.63;10.90;;;;;;;-145.23;100.00;58621.06;5043818;28;20593;-57
2022/12/08 05:26:33;;;;;;;17.03;11.63;;;;;;;-145.23;100.00;58621.06;5040876;28;20243;-61
2022/12/08 05:29:00;;;;;;;19.00;12.43;;;;;;;-145.23;100.00;58621.06;5055249;28;20234;-56
2022/12/08 05:31:27;;;;;;;16.20;10.93;;;;;;;-145.23;100.00;58621.06;5054802;28;20715;-56
2022/12/08 05:33:55;;;;;;;17.30;12.47;;;;;;;-145.23;100.00;58621.06;5053565;28;20232;-57
2022/12/08 05:36:23;;;;;;;18.10;12.50;;;;;;;-145.23;100.00;58621.06;5052367;28;20254;-57
2022/12/08 05:38:50;;;;;;;20.07;11.90;;;;;;;-145.23;100.00;58621.06;5060935;28;20248;-56
2022/12/08 05:41:18;;;;;;;19.20;12.90;;;;;;;-145.23;100.00;58621.06;5054300;28;20250;-56
2022/12/08 05:43:45;;;;;;;18.37;11.40;;;;;;;-145.23;100.00;58621.06;5051989;28;20248;-56
2022/12/08 05:46:13;;;;;;;20.93;12.87;;;;;;;-145.23;100.00;58621.06;5042346;28;20233;-56
2022/12/08 05:48:40;;;;;;;20.40;13.93;;;;;;;-145.23;100.00;58621.06;5041931;28;20234;-54
2022/12/08 05:51:16;;;;;;;22.10;12.57;;;;;;;-145.23;100.00;58621.06;5052011;28;20241;-55
2022/12/08 05:53:44;;;;;;;17.83;12.33;;;;;;;-145.23;100.00;58621.06;5051862;28;20742;-55
2022/12/08 05:56:11;;;;;;;15.97;12.33;;;;;;;-145.23;100.00;58621.06;5046085;28;20228;-54
2022/12/08 05:58:38;;;;;;;21.67;14.13;;;;;;;-145.23;100.00;58621.06;5044371;28;20311;-54
2022/12/08 06:01:05;;;;;;;21.77;13.23;;;;;;;-145.23;100.00;58621.06;5042954;28;20240;-54
2022/12/08 06:03:32;;;;;;;18.77;12.17;;;;;;;-145.23;100.00;58621.06;5041195;28;20247;-55
2022/12/08 06:05:58;;;;;;;17.57;12.47;;;;;;;-145.23;100.00;58621.06;5051024;28;20316;-54
2022/12/08 06:08:25;;;;;;;20.43;15.27;;;;;;;-145.23;100.00;58621.06;5059901;28;20239;-54
2022/12/08 06:10:53;;;;;;;18.70;12.83;;;;;;;-145.23;100.00;58621.06;5050138;28;20331;-54
2022/12/08 06:13:20;;;;;;;19.43;13.77;;;;;;;-145.23;100.00;58621.06;5052850;28;20234;-53
2022/12/08 06:15:47;;;;;;;19.97;12.83;;;;;;;-145.23;100.00;58621.06;5054215;28;20228;-54
2022/12/08 06:18:14;;;;;;;19.50;13.10;;;;;;;-145.23;100.00;58621.06;5067783;28;20241;-52
2022/12/08 06:20:41;;;;;;;20.10;14.60;;;;;;;-145.23;100.00;58621.06;5059316;28;20234;-54
2022/12/08 06:23:08;;;;;;;15.90;12.23;;;;;;;-145.23;100.00;58621.06;5057432;28;20295;-53
2022/12/08 06:25:35;;;;;;;24.43;13.77;;;;;;;-145.23;100.00;58621.06;5053732;28;20239;-54
2022/12/08 06:28:05;;;;;;;21.67;12.93;;;;;;;-145.23;100.00;58621.06;5057153;28;20293;-54
2022/12/08 06:30:32;;;;;;;23.60;13.60;;;;;;;-145.23;100.00;58621.06;5059718;28;20234;-54
2022/12/08 06:32:58;;;;;;;22.50;14.03;;;;;;;-145.23;100.00;58621.06;5056951;28;20724;-54
2022/12/08 06:35:25;;;;;;;18.17;12.70;;;;;;;-145.23;100.00;58621.06;5056499;28;20248;-54
2022/12/08 06:37:52;;;;;;;23.47;13.97;;;;;;;-145.23;100.00;58621.06;5059433;28;20703;-56
2022/12/08 06:40:19;;;;;;;17.63;13.37;;;;;;;-145.23;100.00;58621.06;5055349;28;20680;-54
2022/12/08 06:42:46;;;;;;;20.90;14.00;;;;;;;-145.23;100.00;58621.06;5047675;28;20229;-54
2022/12/08 06:45:16;;;;;;;18.87;12.93;;;;;;;-145.23;100.00;58621.06;5049065;28;20316;-53
2022/12/08 06:47:43;;;;;;;19.17;13.10;;;;;;;-145.23;100.00;58621.06;5050437;28;20230;-53
2022/12/08 06:50:12;;;;;;;25.83;13.57;;;;;;;-145.23;100.00;58621.06;5054698;28;20251;-54
2022/12/08 06:52:39;;;;;;;17.90;12.30;;;;;;;-145.23;100.00;58621.06;5060222;28;20234;-54
2022/12/08 06:55:07;;;;;;;21.17;13.30;;;;;;;-145.23;100.00;58621.06;5059549;28;20325;-55
2022/12/08 06:57:34;;;;;;;18.47;12.73;;;;;;;-145.23;100.00;58621.06;5059855;28;20231;-55
2022/12/08 07:00:01;;;;;;;20.30;13.17;;;;;;;-145.23;100.00;58621.06;5037504;28;20227;-55
2022/12/08 07:02:29;;;;;;;19.20;12.43;;;;;;;-145.23;100.00;58621.06;5052271;28;20276;-53
2022/12/08 07:04:56;;;;;;;21.60;14.03;;;;;;;-145.23;100.00;58621.06;5048705;28;20238;-54
2022/12/08 07:07:23;;;;;;;18.87;13.57;;;;;;;-145.23;100.00;58621.06;5049174;28;20259;-55
2022/12/08 07:09:50;;;;;;;19.43;13.23;;;;;;;-145.23;100.00;58621.06;5048080;28;20244;-55
2022/12/08 07:12:17;;;;;;;19.00;11.73;;;;;;;-145.23;100.00;58621.06;5046799;28;20238;-54
2022/12/08 07:14:44;;;;;;;16.13;11.13;;;;;;;-145.23;100.00;58621.06;5048434;28;20235;-53
2022/12/08 07:17:12;;;;;;;15.47;10.97;;;;;;;-145.23;100.00;58621.06;5056959;28;20234;-53
2022/12/08 07:19:40;;;;;;;18.73;12.90;;;;;;;-145.23;100.00;58621.06;5055923;28;20242;-54
2022/12/08 07:22:07;;;;;;;18.27;13.10;;;;;;;-145.23;100.00;58621.06;5047110;28;20235;-54
2022/12/08 07:24:34;;;;;;;22.00;12.80;;;;;;;-145.23;100.00;58621.06;5052714;28;20518;-56
2022/12/08 07:27:01;;;;;;;15.47;11.93;;;;;;;-145.23;100.00;58621.06;5055685;28;20231;-54
2022/12/08 07:29:28;;;;;;;19.13;11.77;;;;;;;-145.23;100.00;58621.06;5049084;28;20268;-53
2022/12/08 07:31:55;;;;;;;18.23;12.77;;;;;;;-145.23;100.00;58621.06;5057209;28;20342;-54
2022/12/08 07:34:22;;;;;;;27.63;14.10;;;;;;;-145.23;100.00;58621.06;5052648;28;20429;-53
2022/12/08 07:36:51;;;;;;;18.00;13.33;;;;;;;-145.23;100.00;58621.06;5052945;28;20238;-53
2022/12/08 07:39:18;;;;;;;20.47;12.03;;;;;;;-145.23;100.00;58621.06;5049868;28;20235;-53
2022/12/08 07:41:45;;;;;;;24.83;13.37;;;;;;;-145.23;100.00;58621.06;5047471;28;20323;-53
2022/12/08 07:44:12;;;;;;;20.40;12.83;;;;;;;-145.23;100.00;58621.06;5049823;28;20234;-54
2022/12/08 07:46:38;;;;;;;19.47;13.50;;;;;;;-145.23;100.00;58621.06;5049772;28;20234;-53
2022/12/08 07:49:05;;;;;;;17.60;12.43;;;;;;;-145.23;100.00;58621.06;5051919;28;20241;-53
2022/12/08 07:51:33;;;;;;;20.30;12.17;;;;;;;-145.23;100.00;58621.06;5044063;28;20259;-53
2022/12/08 07:54:01;;;;;;;27.40;15.93;;;;;;;-145.23;100.00;58621.06;5036692;28;20326;-53
2022/12/08 07:56:28;;;;;;;32.87;13.93;;;;;;;-145.23;100.00;58621.06;5038268;28;20289;-53
2022/12/08 07:58:55;;;;;;;22.07;13.13;;;;;;;-145.23;100.00;58621.06;5042451;28;20325;-54
2022/12/08 08:01:24;;;;;;;20.60;13.93;;;;;;;-145.23;100.00;58621.06;5042549;28;20266;-53
2022/12/08 08:03:51;;;;;;;18.40;13.10;;;;;;;-145.23;100.00;58621.06;5048530;28;20234;-53
2022/12/08 08:06:18;;;;;;;15.33;11.17;;;;;;;-145.23;100.00;58621.06;5048520;28;20254;-53
2022/12/08 08:08:45;;;;;;;15.03;12.63;;;;;;;-145.23;100.00;58621.06;5053290;28;20220;-53
2022/12/08 08:11:13;;;;;;;21.70;13.97;;;;;;;-145.23;100.00;58621.06;5042473;28;20259;-54
2022/12/08 08:13:40;;;;;;;17.97;12.67;;;;;;;-145.23;100.00;58621.06;5036180;28;20238;-54
2022/12/08 08:16:09;;;;;;;23.43;13.77;;;;;;;-145.23;100.00;58621.06;5038462;28;20226;-55
2022/12/08 08:18:36;;;;;;;18.37;12.83;;;;;;;-145.23;100.00;58621.06;5050714;28;20245;-53
2022/12/08 08:21:04;;;;;;;22.07;13.43;;;;;;;-145.23;100.00;58621.06;5042921;28;20288;-54
2022/12/08 08:23:31;;;;;;;15.50;10.90;;;;;;;-145.23;100.00;58621.06;5035896;28;20265;-54
2022/12/08 08:25:59;;;;;;;18.70;12.30;;;;;;;-145.23;100.00;58621.06;5036002;28;20230;-53
2022/12/08 08:28:27;;;;;;;22.87;13.47;;;;;;;-145.23;100.00;58621.06;5044609;28;20950;-53
2022/12/08 08:30:54;;;;;;;19.23;13.67;;;;;;;-145.23;100.00;58621.06;5039609;28;20602;-53
2022/12/08 08:33:22;;;;;;;23.90;13.60;;;;;;;-145.23;100.00;58621.06;5041062;28;20774;-54
2022/12/08 08:35:49;;;;;;;18.37;13.70;;;;;;;-145.23;100.00;58621.06;5039337;28;20310;-52
2022/12/08 08:38:16;;;;;;;16.53;11.93;;;;;;;-145.23;100.00;58621.06;5040028;28;20243;-54
2022/12/08 08:40:43;;;;;;;21.37;13.10;;;;;;;-145.23;100.00;58621.06;5051118;28;20720;-53
2022/12/08 08:43:27;;;;;;;17.23;12.83;;;;;;;-145.23;100.00;58621.06;5054045;28;20264;-53
2022/12/08 08:45:56;;;;;;;15.03;12.33;;;;;;;-145.23;100.00;58621.06;5039641;28;20760;-53
2022/12/08 08:48:23;;;;;;;18.20;12.67;;;;;;;-145.23;100.00;58621.06;5039669;28;20234;-55
2022/12/08 08:50:51;;;;;;;18.83;13.07;;;;;;;-145.23;100.00;58621.06;5039970;28;20265;-54
2022/12/08 08:53:17;;;;;;;20.63;13.00;;;;;;;-145.23;100.00;58621.06;5034972;28;20295;-54
2022/12/08 08:55:44;;;;;;;14.53;11.07;;;;;;;-145.23;100.00;58621.06;5051207;28;20226;-52
2022/12/08 08:58:11;;;;;;;20.30;13.17;;;;;;;-145.23;100.00;58621.06;5049969;28;20237;-54
2022/12/08 09:00:38;;;;;;;20.93;12.97;;;;;;;-145.23;100.00;58621.06;5039176;28;20231;-53
2022/12/08 09:03:07;;;;;;;21.50;13.60;;;;;;;-145.23;100.00;58621.06;5041607;28;20790;-53
2022/12/08 09:05:34;;;;;;;23.50;12.17;;;;;;;-145.23;100.00;58621.06;5045439;28;20609;-55
2022/12/08 09:08:01;;;;;;;15.87;12.23;;;;;;;-145.23;100.00;58621.06;5052685;28;20245;-54
2022/12/08 09:10:28;;;;;;;17.50;12.67;;;;;;;-145.23;100.00;58621.06;5036913;28;20235;-54
2022/12/08 09:12:55;;;;;;;22.90;13.00;;;;;;;-145.23;100.00;58621.06;5039143;28;20788;-52
2022/12/08 09:15:22;;;;;;;23.33;13.03;;;;;;;-145.23;100.00;58621.06;5056923;28;20247;-53
2022/12/08 09:17:49;;;;;;;18.27;12.10;;;;;;;-145.23;100.00;58621.06;5043723;28;20511;-52
2022/12/08 09:20:18;;;;;;;19.37;12.83;;;;;;;-145.23;100.00;58621.06;5039211;28;20594;-53
2022/12/08 09:22:45;;;;;;;18.57;12.23;;;;;;;-145.23;100.00;58621.06;5051173;28;20246;-55
2022/12/08 09:25:12;;;;;;;20.53;11.97;;;;;;;-145.23;100.00;58621.06;5050286;28;20234;-54
2022/12/08 09:27:39;;;;;;;20.27;13.40;;;;;;;-145.23;100.00;58621.06;5046333;28;20238;-54
2022/12/08 09:30:07;;;;;;;17.63;12.20;;;;;;;-145.23;100.00;58621.06;5044188;28;20526;-53
2022/12/08 09:32:34;;;;;;;15.80;11.93;;;;;;;-145.23;100.00;58621.06;5031082;28;20241;-53
2022/12/08 09:35:01;;;;;;;14.00;10.97;;;;;;;-145.23;100.00;58621.06;5044503;28;20230;-53
2022/12/08 09:37:29;;;;;;;16.30;11.80;;;;;;;-145.23;100.00;58621.06;5037174;28;20328;-54
2022/12/08 09:39:56;;;;;;;16.93;11.73;;;;;;;-145.23;100.00;58621.06;5045925;28;20262;-53
2022/12/08 09:42:33;;;;;;;15.17;11.43;;;;;;;-145.23;100.00;58621.06;5037937;28;20235;-54
2022/12/08 09:45:04;;;;;;;17.07;12.27;;;;;;;-145.23;100.00;58621.06;5040410;28;20234;-54
2022/12/08 09:47:33;;;;;;;14.07;10.80;;;;;;;-145.23;100.00;58621.06;5042030;28;20243;-53
2022/12/08 09:50:05;;;;;;;19.10;10.90;;;;;;;-145.23;100.00;58621.06;5036159;28;20234;-53
2022/12/08 09:52:38;;;;;;;16.83;12.03;;;;;;;-145.23;100.00;58621.06;5041888;28;20289;-53
2022/12/08 09:55:14;;;;;;;17.83;12.37;;;;;;;-145.23;100.00;58621.06;5045502;28;20231;-53
2022/12/08 09:57:41;;;;;;;19.03;12.07;;;;;;;-145.23;100.00;58621.06;5040689;28;20306;-54
2022/12/08 10:00:12;;;;;;;14.10;11.57;;;;;;;-145.23;100.00;58621.06;5046545;28;20728;-54
2022/12/08 10:02:39;;;;;;;20.03;13.10;;;;;;;-145.23;100.00;58621.06;5040304;28;20231;-54
2022/12/08 10:05:07;;;;;;;14.20;12.10;;;;;;;-145.23;100.00;58621.06;5041616;28;20234;-53
2022/12/08 10:07:42;;;;;;;20.27;11.80;;;;;;;-145.23;100.00;58621.06;5049242;28;20318;-54
2022/12/08 10:10:20;;;;;;;16.60;10.67;;;;;;;-145.23;100.00;58621.06;5042309;28;20234;-55
2022/12/08 10:12:51;;;;;;;16.27;10.37;;;;;;;-145.23;100.00;58621.06;5043962;28;20288;-54
2022/12/08 10:15:30;;;;;;;15.03;11.67;;;;;;;-145.23;100.00;58621.06;5044177;28;20231;-53
2022/12/08 10:18:00;;;;;;;18.90;11.47;;;;;;;-145.23;100.00;58621.06;5042804;28;20254;-53
2022/12/08 10:20:36;;;;;;;16.37;10.50;;;;;;;-145.23;100.00;58621.06;5047506;28;20693;-53
2022/12/08 10:23:09;;;;;;;16.17;10.90;;;;;;;-145.23;100.00;58621.06;5049112;28;20929;-53
2022/12/08 10:25:39;;;;;;;14.70;10.87;;;;;;;-145.23;100.00;58621.06;5046792;28;20250;-53
2022/12/08 10:28:06;;;;;;;17.00;9.97;;;;;;;-145.23;100.00;58621.06;5047633;28;20227;-52
2022/12/08 10:30:33;;;;;;;18.30;11.83;;;;;;;-145.23;100.00;58621.06;5048776;28;20235;-53
2022/12/08 10:33:00;;;;;;;13.07;10.37;;;;;;;-145.23;100.00;58621.06;5039105;28;20234;-53
2022/12/08 10:35:42;;;;;;;14.93;9.80;;;;;;;-145.23;100.00;58621.06;5043130;28;20731;-53
2022/12/08 10:38:17;;;;;;;13.97;9.17;;;;;;;-145.23;100.00;58621.06;5037718;28;20309;-52
2022/12/08 10:40:46;;;;;;;12.83;9.80;;;;;;;-145.23;100.00;58621.06;5054568;28;20237;-54
2022/12/08 10:43:15;;;;;;;13.73;9.50;;;;;;;-145.23;100.00;58621.06;5047667;28;20246;-53
2022/12/08 10:45:42;;;;;;;16.47;10.10;;;;;;;-145.23;100.00;58621.06;5044114;28;20338;-53
2022/12/08 10:48:16;;;;;;;19.77;11.10;;;;;;;-145.23;100.00;58621.06;5047884;28;20261;-53
2022/12/08 10:50:45;;;;;;;10.07;8.27;;;;;;;-145.23;100.00;58621.06;5052645;28;20235;-53
2022/12/08 10:53:15;;;;;;;12.23;9.43;;;;;;;-145.23;100.00;58621.06;5051558;28;20265;-53
2022/12/08 10:55:45;;;;;;;15.63;8.80;;;;;;;-145.23;100.00;58621.06;5053689;28;20237;-53
2022/12/08 10:58:30;;;;;;;20.27;9.43;;;;;;;-145.23;100.00;58621.06;5039659;28;20593;-53
2022/12/08 11:00:59;;;;;;;13.93;9.93;;;;;;;-145.23;100.00;58621.06;5038199;28;20241;-53
2022/12/08 11:03:29;;;;;;;15.17;8.83;;;;;;;-145.23;100.00;58621.06;5049634;28;20611;-54
2022/12/08 11:05:58;;;;;;;14.73;10.63;;;;;;;-145.23;100.00;58621.06;5056816;28;20230;-54
2022/12/08 11:08:27;;;;;;;18.10;10.23;;;;;;;-145.23;100.00;58621.06;5041136;28;20264;-54
2022/12/08 11:10:54;;;;;;;9.93;8.47;;;;;;;-145.23;100.00;58621.06;5047186;28;20267;-56
2022/12/08 11:13:23;;;;;;;9.63;8.63;;;;;;;-145.23;100.00;58621.06;5049046;28;20334;-56